Time;durP1;ratioP1;P1;durP2;ratioP2;P2;SDS_P1;SDS_P2;PMS_P1;PMS_P2;Temp;Humidity;BMP_temperature;BMP_pressure;BME280_temperature;BME280_humidity;BME280_pressure;Samples;Min_cycle;Max_cycle;Signal;HPM_P1;HPM_P2
2022/06/19 00:00:02;;;;;;;6.50;5.78;;;;;;;19.63;58.97;100076.31;1748839;81;27490;-67
2022/06/19 00:02:28;;;;;;;9.28;6.10;;;;;;;19.62;59.11;100076.69;1769009;80;25297;-66
2022/06/19 00:04:56;;;;;;;9.63;6.05;;;;;;;19.58;59.21;100076.06;1763650;80;25679;-66
2022/06/19 00:07:23;;;;;;;14.25;6.62;;;;;;;19.57;59.46;100077.80;1721739;82;25746;-66
2022/06/19 00:09:49;;;;;;;8.88;6.17;;;;;;;19.55;59.50;100074.65;1761918;80;25864;-67
2022/06/19 00:12:18;;;;;;;7.47;6.05;;;;;;;19.54;59.41;100074.43;1708703;84;28616;-66
2022/06/19 00:14:45;;;;;;;9.47;5.90;;;;;;;19.51;59.62;100073.24;1716284;82;25738;-67
2022/06/19 00:17:14;;;;;;;9.28;6.42;;;;;;;19.48;59.75;100073.17;1750262;80;25426;-67
2022/06/19 00:19:40;;;;;;;9.50;6.28;;;;;;;19.46;59.89;100082.36;1749032;80;25775;-66
2022/06/19 00:22:07;;;;;;;8.63;6.03;;;;;;;19.46;60.02;100083.73;1741009;81;25741;-66
2022/06/19 00:24:34;;;;;;;10.75;6.17;;;;;;;19.43;59.98;100091.34;1695362;84;27264;-66
2022/06/19 00:27:00;;;;;;;6.72;6.03;;;;;;;19.43;60.19;100093.52;1742974;81;25737;-66
2022/06/19 00:29:28;;;;;;;6.67;5.80;;;;;;;19.40;60.50;100092.30;1753048;81;25641;-68
2022/06/19 00:31:56;;;;;;;9.98;5.90;;;;;;;19.39;60.14;100096.78;1736871;81;26125;-67
2022/06/19 00:34:23;;;;;;;11.80;6.60;;;;;;;19.37;60.41;100095.00;1758050;81;25416;-67
2022/06/19 00:36:51;;;;;;;9.25;6.47;;;;;;;19.34;60.37;100093.81;1758066;81;26849;-67
2022/06/19 00:39:19;;;;;;;8.25;5.97;;;;;;;19.33;60.63;100088.11;1776420;80;25605;-67
2022/06/19 00:41:46;;;;;;;11.50;6.55;;;;;;;19.32;60.54;100089.84;1724918;82;25737;-67
2022/06/19 00:44:15;;;;;;;15.18;6.28;;;;;;;19.29;60.89;100083.73;1763555;81;25695;-67
2022/06/19 00:46:52;;;;;;;7.95;5.47;;;;;;;19.24;61.02;100091.73;1696456;84;25775;-66
2022/06/19 00:49:30;;;;;;;11.28;6.20;;;;;;;19.20;61.01;100090.28;1700573;84;27300;-67
2022/06/19 00:52:16;;;;;;;14.23;6.10;;;;;;;19.18;61.09;100096.72;1726392;83;25668;-67
2022/06/19 00:55:03;;;;;;;7.22;6.25;;;;;;;19.17;61.30;100097.91;1742242;82;25735;-67
2022/06/19 00:57:34;;;;;;;9.08;6.65;;;;;;;19.15;61.11;100102.95;1698089;83;25845;-66
2022/06/19 01:00:15;;;;;;;7.67;6.35;;;;;;;19.13;61.54;100111.34;1715521;82;25728;-66
2022/06/19 01:02:44;;;;;;;7.62;6.25;;;;;;;19.12;61.41;100108.39;1689456;84;28090;-66
2022/06/19 01:05:13;;;;;;;8.05;6.58;;;;;;;19.10;61.61;100112.09;1700448;83;25787;-66
2022/06/19 01:07:43;;;;;;;8.70;6.42;;;;;;;19.07;61.72;100111.45;1731470;82;25814;-66
2022/06/19 01:10:12;;;;;;;10.82;7.35;;;;;;;19.05;61.76;100114.56;1725441;82;25628;-66
2022/06/19 01:12:42;;;;;;;7.97;6.35;;;;;;;19.02;61.79;100112.00;1678752;84;25704;-66
2022/06/19 01:15:13;;;;;;;9.28;6.03;;;;;;;19.00;61.99;100112.95;1694627;84;27784;-66
2022/06/19 01:17:39;;;;;;;8.90;6.03;;;;;;;18.97;61.98;100117.80;1684237;83;25814;-66
2022/06/19 01:20:11;;;;;;;8.35;6.33;;;;;;;18.95;62.13;100121.49;1681300;84;25798;-66
2022/06/19 01:23:01;;;;;;;11.15;6.08;;;;;;;18.94;61.91;100119.13;1700704;84;25810;-67
2022/06/19 01:25:34;;;;;;;7.15;5.67;;;;;;;18.92;62.03;100115.97;1690360;83;25710;-66
2022/06/19 01:30:51;;;;;;;12.43;6.85;;;;;;;18.86;62.44;100115.47;1684075;83;25749;-66
2022/06/19 01:33:22;;;;;;;6.72;5.85;;;;;;;18.81;62.65;100118.50;1695943;83;25342;-66
2022/06/19 01:35:51;;;;;;;8.25;6.47;;;;;;;18.78;62.67;100120.05;1704958;84;25557;-66
2022/06/19 01:38:21;;;;;;;10.60;6.72;;;;;;;18.73;62.86;100116.25;1727194;82;25718;-68
2022/06/19 01:40:52;;;;;;;7.87;5.85;;;;;;;18.70;62.92;100106.61;1726225;83;27355;-68
2022/06/19 01:43:20;;;;;;;10.72;5.92;;;;;;;18.66;63.09;100113.38;1725501;83;25386;-67
2022/06/19 01:45:53;;;;;;;6.85;6.17;;;;;;;18.63;63.14;100118.25;1741583;80;25456;-67
2022/06/19 01:48:22;;;;;;;6.95;6.25;;;;;;;18.60;63.16;100120.34;1721800;83;26403;-66
2022/06/19 01:50:49;;;;;;;9.05;6.67;;;;;;;18.56;63.43;100120.30;1706741;84;25651;-67
2022/06/19 01:53:21;;;;;;;10.88;6.45;;;;;;;18.54;63.59;100116.33;1685702;83;27430;-67
2022/06/19 01:55:50;;;;;;;8.35;6.47;;;;;;;18.51;63.49;100110.20;1704678;83;25421;-66
2022/06/19 01:58:18;;;;;;;8.75;6.47;;;;;;;18.48;63.78;100114.48;1726725;83;25492;-66
2022/06/19 02:00:47;;;;;;;8.18;6.30;;;;;;;18.46;63.64;100109.96;1726667;82;25686;-66
2022/06/19 02:03:30;;;;;;;8.17;6.77;;;;;;;18.44;63.85;100113.65;1726762;83;25410;-66
2022/06/19 02:05:58;;;;;;;12.15;6.87;;;;;;;18.42;63.87;100112.64;1726719;82;27305;-66
2022/06/19 02:08:27;;;;;;;7.47;6.62;;;;;;;18.39;64.05;100111.19;1726596;82;25654;-66
2022/06/19 02:10:55;;;;;;;12.93;7.40;;;;;;;18.35;64.12;100108.98;1726710;83;25597;-66
2022/06/19 02:13:23;;;;;;;10.68;6.40;;;;;;;18.33;64.17;100105.83;1726754;83;25626;-67
2022/06/19 02:15:53;;;;;;;8.43;6.83;;;;;;;18.31;64.42;100110.88;1726789;83;25483;-67
2022/06/19 02:18:24;;;;;;;11.35;7.20;;;;;;;18.27;64.56;100108.09;1726860;83;27341;-67
2022/06/19 02:20:52;;;;;;;9.53;6.47;;;;;;;18.22;64.71;100111.91;1726680;83;25392;-66
2022/06/19 02:23:24;;;;;;;15.35;7.25;;;;;;;18.20;64.74;100117.53;1726781;83;25382;-66
2022/06/19 02:25:50;;;;;;;10.00;6.62;;;;;;;18.19;64.77;100106.38;1726326;83;25715;-66
2022/06/19 02:28:18;;;;;;;7.80;6.60;;;;;;;18.16;64.98;100096.16;1726770;83;25630;-66
2022/06/19 02:30:47;;;;;;;7.70;7.00;;;;;;;18.13;65.15;100100.41;1726725;83;28078;-66
2022/06/19 02:33:18;;;;;;;8.90;7.30;;;;;;;18.08;65.08;100089.20;1726746;82;25563;-66
2022/06/19 02:35:45;;;;;;;10.03;7.10;;;;;;;18.09;65.41;100094.87;1726732;83;25434;-66
2022/06/19 02:38:18;;;;;;;7.87;6.87;;;;;;;18.06;65.40;100090.12;1726689;83;25781;-67
2022/06/19 02:40:58;;;;;;;8.00;6.87;;;;;;;18.05;65.64;100085.03;1726738;82;25689;-67
2022/06/19 02:43:31;;;;;;;9.53;7.37;;;;;;;18.03;65.73;100085.40;1726071;82;27539;-66
2022/06/19 02:45:58;;;;;;;7.80;6.65;;;;;;;18.02;66.01;100092.02;1726584;82;25604;-66
2022/06/19 02:48:30;;;;;;;9.68;6.97;;;;;;;18.01;66.50;100091.01;1719840;82;25397;-66
2022/06/19 02:51:01;;;;;;;9.43;7.28;;;;;;;17.99;66.27;100090.59;1729144;82;25687;-66
2022/06/19 02:53:28;;;;;;;12.53;6.75;;;;;;;17.97;66.30;100082.73;1710419;82;25605;-65
2022/06/19 02:55:55;;;;;;;7.50;6.65;;;;;;;17.98;66.44;100085.70;1720361;82;27371;-65
2022/06/19 02:58:24;;;;;;;7.15;6.45;;;;;;;17.98;66.49;100082.97;1711185;83;25607;-65
2022/06/19 03:00:51;;;;;;;11.18;6.92;;;;;;;17.98;66.64;100073.39;1711371;83;26324;-65
2022/06/19 03:03:34;;;;;;;10.63;7.53;;;;;;;17.99;66.73;100075.54;1711227;83;25682;-65
2022/06/19 03:06:00;;;;;;;8.78;6.80;;;;;;;18.00;66.69;100071.66;1711114;83;25717;-66
2022/06/19 03:08:26;;;;;;;9.55;6.75;;;;;;;18.01;66.79;100073.22;1711293;83;27387;-66
2022/06/19 03:10:52;;;;;;;11.28;7.20;;;;;;;18.01;67.05;100068.53;1723684;82;25459;-66
2022/06/19 03:13:22;;;;;;;7.70;6.58;;;;;;;18.03;66.98;100069.53;1733980;82;25712;-66
2022/06/19 03:16:07;;;;;;;10.63;6.90;;;;;;;18.05;67.05;100067.25;1711261;83;25767;-66
2022/06/19 03:18:33;;;;;;;8.90;6.92;;;;;;;18.07;67.13;100073.92;1714543;82;25646;-66
2022/06/19 03:21:00;;;;;;;9.08;6.83;;;;;;;18.08;67.09;100072.78;1736437;82;28085;-66
2022/06/19 03:23:26;;;;;;;8.63;6.87;;;;;;;18.10;67.17;100068.31;1734478;82;25936;-66
2022/06/19 03:25:53;;;;;;;11.48;6.80;;;;;;;18.13;67.28;100067.55;1711318;83;25564;-66
2022/06/19 03:28:19;;;;;;;7.97;6.62;;;;;;;18.14;67.24;100070.52;1728475;82;26217;-66
2022/06/19 03:30:45;;;;;;;8.18;6.50;;;;;;;18.17;67.33;100076.64;1711709;82;25762;-66
2022/06/19 03:33:11;;;;;;;9.00;7.12;;;;;;;18.17;67.29;100076.64;1711192;83;27353;-66
2022/06/19 03:35:37;;;;;;;8.70;7.43;;;;;;;18.19;67.33;100071.58;1728876;82;25776;-66
2022/06/19 03:38:03;;;;;;;9.23;7.28;;;;;;;18.20;67.25;100062.22;1711275;83;25574;-66
2022/06/19 03:40:29;;;;;;;9.68;6.95;;;;;;;18.23;67.30;100060.09;1711266;83;25737;-66
2022/06/19 03:42:55;;;;;;;7.22;6.53;;;;;;;18.25;67.44;100059.18;1711311;83;25757;-66
2022/06/19 03:45:21;;;;;;;11.05;7.35;;;;;;;18.28;67.39;100065.27;1711248;83;27319;-66
2022/06/19 03:47:47;;;;;;;11.40;6.87;;;;;;;18.32;67.41;100063.98;1776554;80;25443;-66
2022/06/19 03:50:17;;;;;;;8.20;7.05;;;;;;;18.35;67.35;100067.91;1750259;81;25548;-66
2022/06/19 03:52:43;;;;;;;12.03;6.60;;;;;;;18.39;67.47;100066.82;1754985;80;25695;-66
2022/06/19 03:55:09;;;;;;;9.98;6.80;;;;;;;18.43;67.43;100070.98;1784577;80;25692;-66
2022/06/19 03:57:35;;;;;;;7.40;6.70;;;;;;;18.46;67.40;100070.25;1784717;80;27374;-66
2022/06/19 04:00:03;;;;;;;10.05;7.25;;;;;;;18.51;67.41;100067.76;1764636;80;25637;-66
2022/06/19 04:02:29;;;;;;;9.78;6.67;;;;;;;18.55;67.38;100073.52;1775193;80;25621;-66
2022/06/19 04:04:56;;;;;;;10.63;7.10;;;;;;;18.61;67.35;100074.79;1781462;80;25752;-66
2022/06/19 04:07:22;;;;;;;7.62;6.70;;;;;;;18.66;67.37;100077.21;1725458;82;25602;-66
2022/06/19 04:09:48;;;;;;;8.63;6.87;;;;;;;18.71;67.36;100066.52;1755076;81;27396;-66
2022/06/19 04:12:15;;;;;;;11.50;6.87;;;;;;;18.75;67.29;100071.46;1702798;82;25598;-66
2022/06/19 04:14:42;;;;;;;6.70;6.08;;;;;;;18.80;67.20;100068.99;1754731;80;25395;-66
2022/06/19 04:17:08;;;;;;;10.48;7.28;;;;;;;18.85;67.29;100065.38;1742188;81;26242;-66
2022/06/19 04:19:35;;;;;;;10.38;6.60;;;;;;;18.90;67.21;100062.89;1738120;82;25579;-66
2022/06/19 04:22:01;;;;;;;9.33;7.15;;;;;;;18.97;67.08;100067.09;1751908;81;27304;-66
2022/06/19 04:24:27;;;;;;;7.70;6.60;;;;;;;19.02;67.00;100068.14;1747346;80;26454;-66
2022/06/19 04:26:53;;;;;;;7.83;6.22;;;;;;;19.07;66.88;100061.55;1754232;81;25652;-66
2022/06/19 04:29:19;;;;;;;9.15;6.87;;;;;;;19.12;66.79;100055.74;1758812;81;25731;-67
2022/06/19 04:31:45;;;;;;;8.88;6.58;;;;;;;19.17;66.63;100058.72;1751171;80;25749;-66
2022/06/19 04:34:11;;;;;;;7.35;5.92;;;;;;;19.21;66.65;100054.86;1760519;81;29578;-66
2022/06/19 04:36:39;;;;;;;9.28;6.30;;;;;;;19.27;66.51;100055.91;1752132;80;25724;-66
2022/06/19 04:39:05;;;;;;;7.83;6.55;;;;;;;19.35;66.49;100055.61;1781304;80;25692;-66
2022/06/19 04:41:38;;;;;;;7.17;6.47;;;;;;;19.40;66.41;100049.79;1760469;81;26383;-66
2022/06/19 04:44:10;;;;;;;8.90;6.83;;;;;;;19.48;66.25;100044.37;1760578;81;25401;-66
2022/06/19 04:46:36;;;;;;;7.37;6.67;;;;;;;19.52;66.16;100047.37;1737780;81;26989;-66
2022/06/19 04:49:03;;;;;;;9.48;6.47;;;;;;;19.59;66.00;100043.33;1755169;81;25714;-67
2022/06/19 04:51:29;;;;;;;7.72;6.17;;;;;;;19.67;65.90;100037.94;1760795;80;25560;-66
2022/06/19 04:53:55;;;;;;;8.90;6.30;;;;;;;19.76;65.79;100037.84;1781307;80;26390;-66
2022/06/19 04:56:22;;;;;;;7.85;6.42;;;;;;;19.83;65.65;100039.87;1781371;80;25723;-66
2022/06/19 04:58:50;;;;;;;9.60;6.42;;;;;;;19.92;65.49;100045.85;1781309;80;27519;-66
2022/06/19 05:01:27;;;;;;;9.00;6.42;;;;;;;19.99;65.33;100028.66;1761590;80;25673;-66
2022/06/19 05:03:57;;;;;;;12.47;6.30;;;;;;;20.08;65.44;100037.34;1762179;80;25641;-66
2022/06/19 05:06:25;;;;;;;9.73;6.55;;;;;;;20.21;65.09;100026.87;1762844;80;26598;-67
2022/06/19 05:08:51;;;;;;;9.38;6.50;;;;;;;20.31;64.90;100036.34;1771790;80;25362;-67
2022/06/19 05:11:20;;;;;;;8.98;6.10;;;;;;;20.41;64.59;100037.59;1755104;81;27283;-67
2022/06/19 05:13:46;;;;;;;7.42;6.33;;;;;;;20.50;64.48;100033.34;1755273;81;25649;-67
2022/06/19 05:16:16;;;;;;;6.20;5.60;;;;;;;20.62;64.21;100035.55;1755180;81;25687;-67
2022/06/19 05:18:44;;;;;;;6.50;5.90;;;;;;;20.74;64.02;100031.16;1773635;80;25691;-67
2022/06/19 05:21:12;;;;;;;9.98;6.53;;;;;;;20.84;63.79;100026.87;1769208;80;25627;-67
2022/06/19 05:23:46;;;;;;;6.28;5.67;;;;;;;20.96;63.68;100014.75;1758885;80;26926;-68
2022/06/19 05:26:30;;;;;;;6.90;5.45;;;;;;;21.05;63.08;100011.86;1768486;80;25693;-68
2022/06/19 05:28:58;;;;;;;8.60;5.92;;;;;;;21.15;62.97;100010.33;1756637;80;25658;-67
2022/06/19 05:31:25;;;;;;;8.45;5.87;;;;;;;21.30;62.64;100011.73;1755131;81;25614;-68
2022/06/19 05:33:52;;;;;;;6.03;5.42;;;;;;;21.39;62.20;100009.42;1773648;80;25381;-67
2022/06/19 05:36:20;;;;;;;5.80;5.25;;;;;;;21.48;62.03;100008.47;1755215;81;26975;-68
2022/06/19 05:38:46;;;;;;;7.75;6.00;;;;;;;21.61;61.74;100004.77;1754939;81;25555;-68
2022/06/19 05:41:13;;;;;;;6.10;5.45;;;;;;;21.74;61.54;100004.59;1755088;81;25644;-67
2022/06/19 05:43:40;;;;;;;6.00;5.15;;;;;;;21.86;60.78;100006.75;1755143;81;26377;-67
2022/06/19 05:46:13;;;;;;;8.90;5.30;;;;;;;21.97;60.95;100013.83;1757820;80;25642;-66
2022/06/19 05:48:39;;;;;;;6.83;5.92;;;;;;;22.09;60.53;100016.78;1724998;82;28323;-67
2022/06/19 05:51:12;;;;;;;7.12;5.50;;;;;;;22.19;60.32;100014.61;1709940;82;25800;-67
2022/06/19 05:53:44;;;;;;;9.08;6.10;;;;;;;22.29;59.93;100016.41;1721247;82;25623;-67
2022/06/19 05:56:11;;;;;;;7.83;5.40;;;;;;;22.42;59.56;100017.55;1705214;84;25690;-67
2022/06/19 05:58:39;;;;;;;6.33;5.30;;;;;;;22.52;59.50;100020.10;1712742;83;25731;-67
2022/06/19 06:01:06;;;;;;;6.42;5.12;;;;;;;22.67;59.39;100013.37;1709968;82;27394;-67
2022/06/19 06:03:32;;;;;;;6.78;5.45;;;;;;;22.82;58.81;100019.63;1729153;82;25698;-67
2022/06/19 06:06:05;;;;;;;7.78;5.45;;;;;;;22.90;58.44;100016.23;1709959;82;25738;-67
2022/06/19 06:08:37;;;;;;;11.93;5.28;;;;;;;23.03;58.17;100020.73;1709931;82;25700;-67
2022/06/19 06:11:05;;;;;;;5.60;5.10;;;;;;;23.11;57.99;100014.81;1709921;82;25458;-67
2022/06/19 06:13:33;;;;;;;7.55;5.45;;;;;;;23.24;58.18;100012.39;1709839;82;27571;-67
2022/06/19 06:16:00;;;;;;;8.48;5.67;;;;;;;23.38;57.44;100008.77;1709813;83;25754;-67
2022/06/19 06:18:27;;;;;;;11.15;5.28;;;;;;;23.47;56.99;100004.17;1709948;82;25709;-67
2022/06/19 06:20:57;;;;;;;5.80;5.20;;;;;;;23.58;57.14;100003.52;1709754;82;25733;-67
2022/06/19 06:23:25;;;;;;;8.93;4.87;;;;;;;23.75;57.36;100001.83;1679826;85;25453;-67
2022/06/19 06:26:08;;;;;;;5.87;5.35;;;;;;;23.99;56.39;100004.22;1719929;82;27416;-67
2022/06/19 06:28:38;;;;;;;6.40;4.85;;;;;;;24.08;55.96;99996.84;1717236;82;25595;-67
2022/06/19 06:31:04;;;;;;;6.30;5.60;;;;;;;24.22;55.87;99994.53;1737299;82;25895;-68
2022/06/19 06:33:31;;;;;;;10.18;5.35;;;;;;;24.36;55.75;99986.09;1717491;82;25651;-67
2022/06/19 06:35:58;;;;;;;5.47;4.80;;;;;;;24.56;56.17;99984.92;1718836;82;25449;-67
2022/06/19 06:38:26;;;;;;;7.28;5.20;;;;;;;24.78;55.20;99995.14;1719840;82;26826;-67
2022/06/19 06:40:53;;;;;;;6.97;4.75;;;;;;;24.95;54.61;99993.97;1711050;82;25704;-67
2022/06/19 06:43:21;;;;;;;6.05;4.85;;;;;;;25.06;54.12;99981.37;1727623;82;25469;-67
2022/06/19 06:45:48;;;;;;;7.23;4.83;;;;;;;25.15;53.40;99980.27;1728836;82;25700;-67
2022/06/19 06:48:17;;;;;;;10.70;4.95;;;;;;;25.27;53.35;99982.49;1701633;82;25643;-67
2022/06/19 06:50:43;;;;;;;;;;;;;;;25.41;52.38;99975.97;1708513;84;27422;-68
2022/06/19 06:53:11;;;;;;;5.58;4.47;;;;;;;25.50;52.49;99971.28;1763372;81;25643;-68
2022/06/19 06:55:43;;;;;;;4.83;4.35;;;;;;;25.61;51.86;99973.88;1759442;80;25750;-68
2022/06/19 06:58:10;;;;;;;7.25;5.05;;;;;;;25.76;51.99;99967.51;1761535;81;26172;-68
2022/06/19 07:00:37;;;;;;;6.83;4.80;;;;;;;25.86;51.32;99973.47;1696651;84;25730;-68
2022/06/19 07:03:05;;;;;;;9.18;4.78;;;;;;;25.92;50.89;99964.88;1698807;83;27335;-68
2022/06/19 07:05:32;;;;;;;7.70;4.65;;;;;;;26.01;50.67;99970.66;1749994;81;25756;-68
2022/06/19 07:07:59;;;;;;;7.10;4.62;;;;;;;26.13;50.55;99967.11;1737059;82;25692;-68
2022/06/19 07:10:26;;;;;;;5.85;4.25;;;;;;;26.27;50.50;99975.16;1709289;84;25685;-68
2022/06/19 07:12:52;;;;;;;7.80;4.72;;;;;;;26.41;50.10;99975.52;1709272;83;25567;-68
2022/06/19 07:15:19;;;;;;;5.10;4.60;;;;;;;26.60;49.14;99977.50;1735146;82;27557;-68
2022/06/19 07:17:45;;;;;;;5.53;4.45;;;;;;;26.65;48.98;99976.26;1722266;82;25650;-68
2022/06/19 07:20:11;;;;;;;8.45;4.78;;;;;;;26.80;49.54;99978.91;1704660;83;25435;-68
2022/06/19 07:22:38;;;;;;;5.90;4.28;;;;;;;27.02;48.98;99968.73;1709261;84;25729;-67
2022/06/19 07:25:06;;;;;;;6.55;5.28;;;;;;;27.16;48.57;99957.95;1710555;82;25424;-69
2022/06/19 07:27:33;;;;;;;4.65;4.08;;;;;;;27.27;48.19;99964.63;1727340;82;27313;-69
2022/06/19 07:29:59;;;;;;;8.90;6.50;;;;;;;27.42;47.92;99968.67;1709122;84;25718;-69
2022/06/19 07:32:25;;;;;;;5.47;4.28;;;;;;;27.59;48.30;99969.46;1709250;83;25618;-68
2022/06/19 07:34:51;;;;;;;8.63;4.20;;;;;;;27.84;46.86;99981.35;1709169;84;26377;-68
2022/06/19 07:37:17;;;;;;;5.97;4.30;;;;;;;27.91;46.47;99979.78;1709197;84;25721;-68
2022/06/19 07:39:43;;;;;;;4.65;4.25;;;;;;;27.95;46.13;99971.37;1709194;83;27318;-68
2022/06/19 07:42:10;;;;;;;7.20;4.60;;;;;;;28.08;46.04;99963.89;1709970;83;25664;-67
2022/06/19 07:44:38;;;;;;;8.33;4.25;;;;;;;28.23;46.09;99964.89;1714288;82;25801;-69
2022/06/19 07:50:13;;;;;;;10.65;4.47;;;;;;;28.44;45.81;99953.19;1768533;81;31147;-67
2022/06/19 07:52:44;;;;;;;7.28;4.45;;;;;;;28.72;45.77;99949.44;1761575;81;27542;-67
2022/06/19 07:55:14;;;;;;;4.35;3.72;;;;;;;29.01;45.98;99947.20;1727518;82;25556;-68
2022/06/19 07:57:40;;;;;;;7.95;4.53;;;;;;;29.37;45.42;99951.09;1726055;83;25621;-68
2022/06/19 08:00:18;;;;;;;5.15;4.08;;;;;;;29.50;44.30;99952.45;1725938;83;25625;-68
2022/06/19 08:02:51;;;;;;;7.50;4.20;;;;;;;29.60;43.32;99954.73;1725638;82;25445;-68
2022/06/19 08:05:26;;;;;;;6.80;3.90;;;;;;;29.60;42.61;99950.55;1725917;83;27348;-68
2022/06/19 08:07:53;;;;;;;6.20;3.87;;;;;;;29.65;42.97;99936.05;1717068;83;25672;-68
2022/06/19 08:10:27;;;;;;;8.33;3.80;;;;;;;29.82;43.31;99935.94;1754474;81;25616;-68
2022/06/19 08:12:55;;;;;;;6.00;4.28;;;;;;;29.99;42.26;99941.50;1757040;81;26200;-68
2022/06/19 08:15:22;;;;;;;4.97;3.80;;;;;;;29.94;42.02;99933.09;1713251;82;25699;-67
2022/06/19 08:17:49;;;;;;;10.00;3.98;;;;;;;29.93;41.49;99950.27;1742507;81;28046;-67
2022/06/19 08:20:17;;;;;;;6.95;4.03;;;;;;;29.92;41.73;99950.89;1711064;82;27264;-68
2022/06/19 08:22:44;;;;;;;4.60;4.20;;;;;;;29.95;40.58;99945.02;1743163;81;25808;-69
2022/06/19 08:25:14;;;;;;;5.75;3.75;;;;;;;29.98;40.84;99939.94;1727544;82;25925;-68
2022/06/19 08:27:43;;;;;;;7.67;4.05;;;;;;;29.98;40.61;99937.15;1742848;82;25703;-68
2022/06/19 08:30:17;;;;;;;7.47;4.15;;;;;;;30.35;41.32;99953.59;1752556;81;33009;-69
2022/06/19 08:32:44;;;;;;;7.15;3.90;;;;;;;30.35;41.32;99953.59;1757847;81;25657;-68
2022/06/19 08:35:11;;;;;;;6.12;3.90;;;;;;;30.22;40.04;99931.91;1752510;81;25496;-69
2022/06/19 08:37:40;;;;;;;8.75;3.90;;;;;;;30.21;40.78;99928.21;1750670;81;28017;-69
2022/06/19 08:40:24;;;;;;;8.00;4.25;;;;;;;30.44;40.65;99929.16;1753403;81;25633;-69
2022/06/19 08:43:08;;;;;;;9.20;4.80;;;;;;;30.58;40.53;99925.67;1741283;82;27447;-69
2022/06/19 08:46:05;;;;;;;7.83;3.85;;;;;;;30.75;41.03;99927.63;1735415;81;25663;-69
2022/06/19 08:49:05;;;;;;;7.80;4.30;;;;;;;31.03;39.97;99931.38;1667768;85;25825;-68
2022/06/19 08:51:56;;;;;;;5.72;3.67;;;;;;;31.16;39.73;99934.84;1675559;84;25647;-67
2022/06/19 08:54:43;;;;;;;6.15;3.87;;;;;;;31.19;38.73;99938.09;1675412;84;25727;-69
2022/06/19 08:57:54;;;;;;;4.22;3.60;;;;;;;31.22;38.65;99922.44;1682726;84;27540;-67
2022/06/19 09:00:49;;;;;;;4.65;3.67;;;;;;;31.26;38.62;99913.28;1669492;84;26348;-68
2022/06/19 09:05:36;;;;;;;4.45;3.75;;;;;;;31.32;38.02;99919.83;1681955;84;25753;-66
2022/06/19 09:06:12;;;;;;;5.00;3.37;;;;;;;31.43;37.94;99915.19;1681144;84;25742;-65
2022/06/19 09:08:50;;;;;;;7.07;3.63;;;;;;;31.51;37.62;99919.91;1667389;84;25854;-66
2022/06/19 09:11:36;;;;;;;6.15;3.52;;;;;;;31.64;38.35;99919.16;1680315;84;27699;-66
2022/06/19 09:14:40;;;;;;;4.97;3.55;;;;;;;31.80;37.63;99924.44;1690004;84;26118;-66
2022/06/19 09:17:30;;;;;;;4.17;3.35;;;;;;;31.92;36.67;99921.34;1689034;84;25750;-65
2022/06/19 09:20:08;;;;;;;8.03;3.40;;;;;;;32.19;36.49;99905.83;1685286;82;26764;-65
2022/06/19 09:23:00;;;;;;;6.37;3.22;;;;;;;32.19;36.49;99905.83;1713435;82;25664;-65
2022/06/19 09:25:52;;;;;;;7.72;3.42;;;;;;;32.15;36.26;99889.84;1623165;87;27540;-65
2022/06/19 09:28:31;;;;;;;8.25;3.55;;;;;;;32.35;36.78;99906.91;1619681;87;25812;-63
2022/06/19 09:31:15;;;;;;;7.33;3.35;;;;;;;32.53;36.49;99900.47;1622936;87;25695;-63
2022/06/19 09:33:56;;;;;;;5.83;3.12;;;;;;;32.67;35.77;99892.06;1641578;86;26105;-64
2022/06/19 09:36:59;;;;;;;5.95;3.30;;;;;;;32.71;35.49;99894.69;1636724;87;26079;-64
2022/06/19 09:39:38;;;;;;;9.80;3.30;;;;;;;32.76;34.89;99886.44;1636268;87;27973;-64
2022/06/19 09:42:07;;;;;;;;;;;;;;;32.84;34.92;99893.86;1648269;86;25762;-66
2022/06/19 09:44:45;;;;;;;6.53;3.60;;;;;;;32.98;33.97;99886.03;1640141;86;25842;-67
2022/06/19 09:47:17;;;;;;;10.70;4.92;;;;;;;33.02;34.91;99877.61;1621715;87;26875;-67
2022/06/19 09:49:48;;;;;;;9.08;3.20;;;;;;;33.33;35.54;99879.97;1641434;86;25762;-67
2022/06/19 09:52:23;;;;;;;6.30;2.90;;;;;;;33.72;34.05;99906.04;1665276;86;28088;-67
2022/06/19 09:54:55;;;;;;;6.47;2.80;;;;;;;33.69;33.41;99860.73;1665152;86;25777;-68
2022/06/19 09:57:38;;;;;;;5.03;3.10;;;;;;;33.72;33.48;99862.58;1664022;86;25841;-66
2022/06/19 10:00:17;;;;;;;6.22;3.08;;;;;;;33.72;33.19;99861.17;1662511;86;25843;-66
2022/06/19 10:02:54;;;;;;;6.33;2.98;;;;;;;33.77;32.85;99885.75;1697717;82;25714;-66
2022/06/19 10:05:46;;;;;;;4.65;3.08;;;;;;;33.67;33.00;99865.41;1748666;81;27380;-65
2022/06/19 10:08:33;;;;;;;5.85;3.02;;;;;;;33.71;32.19;99889.05;1772610;80;25714;-66
2022/06/19 10:11:16;;;;;;;4.97;3.08;;;;;;;33.79;32.30;99899.29;1757415;81;25338;-65
2022/06/19 10:14:12;;;;;;;8.18;2.98;;;;;;;33.55;32.07;99875.46;1775773;80;25685;-67
2022/06/19 10:16:59;;;;;;;5.12;3.17;;;;;;;33.47;33.02;99880.64;1714509;82;25769;-70
2022/06/19 10:19:43;;;;;;;8.05;3.22;;;;;;;33.47;33.02;99880.64;1763035;81;27329;-64
2022/06/19 10:22:46;;;;;;;3.70;2.70;;;;;;;33.56;32.52;99859.56;1708181;83;25708;-64
2022/06/19 10:26:00;;;;;;;7.28;2.95;;;;;;;33.57;32.56;99858.30;1765163;80;25649;-63
2022/06/19 10:28:44;;;;;;;5.53;2.70;;;;;;;33.60;32.90;99868.56;1769216;80;27838;-64
2022/06/19 10:31:15;;;;;;;6.12;3.20;;;;;;;33.66;32.15;99869.45;1784098;80;25794;-64
2022/06/19 10:34:20;;;;;;;6.55;2.90;;;;;;;33.70;32.55;99842.66;1782190;80;27886;-64
2022/06/19 10:36:58;;;;;;;7.67;3.37;;;;;;;33.82;32.22;99848.63;1734267;82;25665;-65
2022/06/19 10:40:16;;;;;;;5.73;2.90;;;;;;;33.92;30.95;99847.13;1738404;81;25758;-63
2022/06/19 10:42:50;;;;;;;6.03;2.90;;;;;;;33.87;31.15;99835.97;1702794;84;25901;-64
2022/06/19 10:45:34;;;;;;;7.05;3.17;;;;;;;33.91;31.02;99851.20;1677944;84;25745;-64
2022/06/19 10:48:34;;;;;;;4.20;2.65;;;;;;;33.85;31.18;99842.05;1675032;84;27330;-64
2022/06/19 10:51:29;;;;;;;7.95;2.55;;;;;;;33.83;30.59;99843.17;1646036;86;25789;-64
2022/06/19 10:54:26;;;;;;;3.20;2.45;;;;;;;33.80;31.06;99818.89;1607743;87;25789;-66
2022/06/19 10:57:25;;;;;;;6.60;2.72;;;;;;;33.83;30.91;99808.72;1625655;86;25766;-65
2022/06/19 10:59:52;;;;;;;5.72;3.27;;;;;;;33.93;30.60;99801.00;1646797;85;25863;-64
2022/06/19 11:05:34;;;;;;;9.65;2.80;;;;;;;34.11;29.78;99796.60;1643184;86;25776;-63
2022/06/19 11:08:01;;;;;;;5.78;2.77;;;;;;;34.13;29.67;99805.30;1643730;85;25865;-65
2022/06/19 11:10:41;;;;;;;8.65;5.15;;;;;;;34.08;30.09;99797.56;1643279;86;25693;-64
2022/06/19 11:13:09;;;;;;;5.47;2.52;;;;;;;34.06;30.24;99804.30;1643481;85;25641;-65
2022/06/19 11:16:01;;;;;;;9.78;2.98;;;;;;;34.15;28.81;99790.16;1643502;85;27318;-67
2022/06/19 11:18:27;;;;;;;6.17;2.50;;;;;;;34.06;29.31;99827.50;1668830;83;25750;-69
2022/06/19 11:21:08;;;;;;;10.25;3.67;;;;;;;33.99;29.17;99784.41;1709565;82;25760;-69
2022/06/19 11:23:52;;;;;;;7.05;2.20;;;;;;;34.00;29.35;99784.58;1727332;82;26565;-71
2022/06/19 11:26:23;;;;;;;8.53;2.80;;;;;;;34.07;29.09;99791.80;1720938;83;25691;-68
2022/06/19 11:29:17;;;;;;;9.23;2.42;;;;;;;34.03;29.03;99778.61;1704134;84;28099;-64
2022/06/19 11:32:18;;;;;;;6.67;3.00;;;;;;;33.93;28.96;99779.33;1702395;84;25679;-65
2022/06/19 11:34:59;;;;;;;10.10;2.85;;;;;;;33.91;30.00;99784.66;1708584;81;25749;-66
2022/06/19 11:37:42;;;;;;;7.75;2.70;;;;;;;34.06;29.38;99773.44;1707517;82;25718;-65
2022/06/19 11:40:18;;;;;;;8.80;2.90;;;;;;;34.06;28.92;99766.42;1681728;84;26228;-64
2022/06/19 11:43:00;;;;;;;11.97;3.35;;;;;;;34.07;29.28;99763.75;1706330;84;28050;-65
2022/06/19 11:45:38;;;;;;;13.58;2.80;;;;;;;34.08;28.21;99764.54;1728449;83;25650;-64
2022/06/19 11:48:13;;;;;;;7.53;2.90;;;;;;;34.04;28.39;99759.13;1738392;80;25628;-66
2022/06/19 11:50:45;;;;;;;10.03;2.85;;;;;;;33.99;28.05;99766.19;1772130;80;25741;-67
2022/06/19 11:53:16;;;;;;;11.25;2.70;;;;;;;33.86;28.56;99751.03;1760242;81;25671;-65
2022/06/19 11:55:47;;;;;;;6.10;3.00;;;;;;;33.84;28.36;99748.58;1761012;80;27293;-65
2022/06/19 11:58:27;;;;;;;8.03;3.00;;;;;;;33.71;28.51;99750.90;1752595;81;25743;-65
2022/06/19 12:01:06;;;;;;;7.08;2.67;;;;;;;33.75;28.86;99738.84;1756444;80;26293;-64